createdAt,value
2023-07-03T00:00:20.665Z,94712.41
2023-07-03T00:03:23.832Z,94719.00
2023-07-03T00:06:26.944Z,94716.00
2023-07-03T00:09:30.029Z,94713.03
2023-07-03T00:12:34.495Z,94719.00
2023-07-03T00:15:38.011Z,94716.19
2023-07-03T00:18:41.036Z,94726.56
2023-07-03T00:21:45.074Z,94721.34
2023-07-03T00:24:48.403Z,94716.00
2023-07-03T00:27:55.131Z,94720.56
2023-07-03T00:30:58.239Z,94715.22
2023-07-03T00:34:01.283Z,94709.88
2023-07-03T00:37:04.482Z,94715.09
2023-07-03T00:40:10.201Z,94719.97
2023-07-03T00:43:15.547Z,94718.41
2023-07-03T00:46:18.744Z,94715.28
2023-07-03T00:49:22.392Z,94718.41
2023-07-03T00:52:25.769Z,94728.78
2023-07-03T00:55:29.192Z,94714.22
2023-07-03T00:58:34.145Z,94725.66
2023-07-03T01:01:45.261Z,94728.66
2023-07-03T01:04:53.539Z,94723.31
2023-07-03T01:07:58.104Z,94722.19
2023-07-03T01:11:01.712Z,94722.72
2023-07-03T01:14:08.572Z,94723.53
2023-07-03T01:17:12.658Z,94726.31
2023-07-03T01:20:19.919Z,94719.41
2023-07-03T01:23:29.856Z,94721.63
2023-07-03T01:26:35.455Z,94713.13
2023-07-03T01:29:41.760Z,94723.97
2023-07-03T01:32:47.890Z,94727.44
2023-07-03T01:35:53.183Z,94729.31
2023-07-03T01:38:57.436Z,94731.66
2023-07-03T01:42:02.514Z,94725.53
2023-07-03T01:45:06.460Z,94728.66
2023-07-03T01:48:10.017Z,94721.00
2023-07-03T01:51:21.507Z,94730.88
2023-07-03T01:54:31.789Z,94731.66
2023-07-03T01:57:47.497Z,94739.81
2023-07-03T02:00:54.285Z,94738.25
2023-07-03T02:04:02.581Z,94736.03
2023-07-03T02:07:08.468Z,94731.22
2023-07-03T02:10:12.406Z,94734.78
2023-07-03T02:13:16.828Z,94720.84
2023-07-03T02:16:19.877Z,94736.34
2023-07-03T02:19:30.159Z,94731.78
2023-07-03T02:22:33.276Z,94739.69
2023-07-03T02:25:36.886Z,94744.25
2023-07-03T02:28:41.487Z,94746.91
2023-07-03T02:31:44.533Z,94751.03
2023-07-03T02:34:47.609Z,94751.03
2023-07-03T02:37:50.612Z,94752.91
2023-07-03T02:40:53.660Z,94764.41
2023-07-03T02:43:58.186Z,94765.97
2023-07-03T02:47:01.404Z,94760.38
2023-07-03T02:50:05.072Z,94776.81
2023-07-03T02:53:08.696Z,94775.56
2023-07-03T02:56:12.160Z,94776.66
2023-07-03T02:59:16.663Z,94775.94
2023-07-03T03:02:21.609Z,94777.88
2023-07-03T03:05:24.732Z,94778.97
2023-07-03T03:08:27.822Z,94783.34
2023-07-03T03:11:31.527Z,94789.91
2023-07-03T03:14:36.592Z,94792.38
2023-07-03T03:17:39.799Z,94786.72
2023-07-03T03:20:43.971Z,94788.47
2023-07-03T03:23:48.154Z,94784.69
2023-07-03T03:26:51.255Z,94788.97
2023-07-03T03:29:55.704Z,94783.78
2023-07-03T03:32:58.919Z,94780.91
2023-07-03T03:36:02.089Z,94783.25
2023-07-03T03:39:05.608Z,94790.03
2023-07-03T03:42:10.711Z,94795.84
2023-07-03T03:45:15.164Z,94793.47
2023-07-03T03:48:18.305Z,94786.09
2023-07-03T03:51:21.376Z,94795.84
2023-07-03T03:54:24.610Z,94801.59
2023-07-03T03:57:27.882Z,94803.88
2023-07-03T04:00:32.443Z,94806.34
2023-07-03T04:03:35.708Z,94819.28
2023-07-03T04:06:39.496Z,94806.72
2023-07-03T04:09:42.575Z,94808.06
2023-07-03T04:12:45.659Z,94810.88
2023-07-03T04:16:00.668Z,94828.00
2023-07-03T04:19:04.181Z,94815.66
2023-07-03T04:22:07.623Z,94824.59
2023-07-03T04:25:11.657Z,94834.97
2023-07-03T04:28:15.556Z,94827.88
2023-07-03T04:31:20.176Z,94827.13
2023-07-03T04:34:23.484Z,94828.78
2023-07-03T04:37:28.207Z,94837.72
2023-07-03T04:40:31.603Z,94834.72
2023-07-03T04:43:34.648Z,94836.78
2023-07-03T04:46:39.854Z,94832.84
2023-07-03T04:49:42.950Z,94837.09
2023-07-03T04:52:47.700Z,94839.31
2023-07-03T04:55:51.445Z,94847.97
2023-07-03T04:58:54.749Z,94846.09
2023-07-03T05:01:59.374Z,94856.00
2023-07-03T05:05:02.773Z,94851.75
2023-07-03T05:08:06.859Z,94849.41
2023-07-03T05:11:10.009Z,94854.75
2023-07-03T05:14:13.188Z,94856.34
2023-07-03T05:17:17.617Z,94860.69
2023-07-03T05:20:23.284Z,94857.41
2023-07-03T05:23:26.388Z,94857.66
2023-07-03T05:26:29.499Z,94860.47
2023-07-03T05:29:34.786Z,94857.00
2023-07-03T05:32:39.601Z,94861.38
2023-07-03T05:35:50.659Z,94867.22
2023-07-03T05:38:54.468Z,94871.47
2023-07-03T05:41:57.637Z,94865.91
2023-07-03T05:45:00.837Z,94870.59
2023-07-03T05:48:05.674Z,94871.06
2023-07-03T05:51:08.830Z,94831.44
2023-07-03T05:54:11.866Z,94875.59
2023-07-03T05:57:15.006Z,94875.06
2023-07-03T06:00:19.002Z,94878.81
2023-07-03T06:03:26.152Z,94880.97
2023-07-03T06:06:29.530Z,94872.41
2023-07-03T06:09:36.506Z,94870.34
2023-07-03T06:12:39.961Z,94873.13
2023-07-03T06:15:43.219Z,94868.34
2023-07-03T06:18:47.790Z,94873.50
2023-07-03T06:21:50.831Z,94872.84
2023-07-03T06:24:53.928Z,94872.66
2023-07-03T06:27:57.060Z,94877.66
2023-07-03T06:31:00.390Z,94878.78
2023-07-03T06:34:05.763Z,94880.59
2023-07-03T06:37:08.848Z,94879.16
2023-07-03T06:40:15.784Z,94874.94
2023-07-03T06:43:18.876Z,94877.06
2023-07-03T06:46:22.607Z,94872.28
2023-07-03T06:49:27.156Z,94874.31
2023-07-03T06:52:30.202Z,94878.59
2023-07-03T06:55:33.386Z,94875.69
2023-07-03T06:58:37.130Z,94875.34
2023-07-03T07:01:42.609Z,94874.25
2023-07-03T07:04:47.424Z,94874.69
2023-07-03T07:07:50.530Z,94877.63
2023-07-03T07:10:53.851Z,94882.31
2023-07-03T07:13:59.340Z,94880.09
2023-07-03T07:17:02.461Z,94878.63
2023-07-03T07:20:08.499Z,94873.72
2023-07-03T07:23:13.463Z,94883.44
2023-07-03T07:26:16.684Z,94882.47
2023-07-03T07:29:20.274Z,94878.22
2023-07-03T07:32:26.304Z,94877.22
2023-07-03T07:35:30.968Z,94875.88
2023-07-03T07:38:34.147Z,94883.13
2023-07-03T07:41:37.920Z,94883.22
2023-07-03T07:44:41.067Z,94880.22
2023-07-03T07:47:44.331Z,94876.56
2023-07-03T07:50:48.931Z,94883.59
2023-07-03T07:53:52.722Z,94888.28
2023-07-03T07:56:55.925Z,94892.22
2023-07-03T07:59:59.309Z,94893.78
2023-07-03T08:03:02.578Z,94892.41
2023-07-03T08:06:07.559Z,94898.00
2023-07-03T08:09:10.751Z,94900.69
2023-07-03T08:12:13.912Z,94897.00
2023-07-03T08:15:17.385Z,94899.00
2023-07-03T08:18:21.561Z,94900.59
2023-07-03T08:21:26.154Z,94908.84
2023-07-03T08:24:29.389Z,94894.31
2023-07-03T08:27:32.637Z,94902.16
2023-07-03T08:30:35.841Z,94899.94
2023-07-03T08:33:38.973Z,94895.47
2023-07-03T08:39:49.820Z,94905.44
2023-07-03T08:42:55.912Z,94904.75
2023-07-03T08:45:59.667Z,94878.13
2023-07-03T08:49:05.477Z,94902.50
2023-07-03T08:52:10.906Z,94898.22
2023-07-03T08:55:18.649Z,94907.38
2023-07-03T08:58:22.609Z,94902.03
2023-07-03T09:01:33.751Z,94896.88
2023-07-03T09:04:49.631Z,94904.38
2023-07-03T09:07:57.146Z,94898.56
2023-07-03T09:11:01.126Z,94902.31
2023-07-03T09:14:05.422Z,94896.94
2023-07-03T09:17:11.040Z,94893.13
2023-07-03T09:20:16.818Z,94889.19
2023-07-03T09:23:24.000Z,94902.41
2023-07-03T09:26:34.357Z,94901.81
2023-07-03T09:29:38.963Z,94900.06
2023-07-03T09:32:42.169Z,94903.19
2023-07-03T09:35:45.339Z,94894.38
2023-07-03T09:38:49.844Z,94904.31
2023-07-03T09:41:54.385Z,94899.72
2023-07-03T09:44:57.530Z,94897.38
2023-07-03T09:48:04.194Z,94897.81
2023-07-03T09:51:09.112Z,94905.44
2023-07-03T09:54:23.094Z,94899.38
2023-07-03T09:57:28.184Z,94890.91
2023-07-03T10:00:31.761Z,94899.38
2023-07-03T10:03:38.446Z,94899.72
2023-07-03T10:06:45.624Z,94892.47
2023-07-03T10:13:05.246Z,94891.34
2023-07-03T10:16:09.312Z,94892.47
2023-07-03T10:19:12.998Z,94890.91
2023-07-03T10:22:17.078Z,94884.03
2023-07-03T10:25:29.862Z,94884.72
2023-07-03T10:28:39.872Z,94888.63
2023-07-03T10:31:49.076Z,94879.00
2023-07-03T10:35:00.052Z,94879.16
2023-07-03T10:38:11.456Z,94869.19
2023-07-03T10:41:22.207Z,94868.28
2023-07-03T10:44:28.855Z,94877.09
2023-07-03T10:47:38.572Z,94875.09
2023-07-03T10:50:50.369Z,94880.13
2023-07-03T10:53:57.359Z,94872.88
2023-07-03T10:57:04.988Z,94875.53
2023-07-03T11:00:14.370Z,94871.31
2023-07-03T11:03:29.485Z,94867.41
2023-07-03T11:06:43.752Z,94860.47
2023-07-03T11:09:56.052Z,94872.75
2023-07-03T11:13:07.336Z,94862.03
2023-07-03T11:16:15.433Z,94858.56
2023-07-03T11:22:47.963Z,94869.50
2023-07-03T11:29:06.261Z,94863.56
2023-07-03T11:32:11.345Z,94859.44
2023-07-03T11:45:01.819Z,94844.13
2023-07-03T11:48:05.621Z,94850.19
2023-07-03T11:51:12.357Z,94847.03
2023-07-03T11:54:19.806Z,94847.03
2023-07-03T11:57:35.275Z,94841.69
2023-07-03T12:00:40.051Z,94841.34
2023-07-03T12:03:53.312Z,94838.78
2023-07-03T12:06:56.499Z,94841.69
2023-07-03T12:10:29.261Z,94847.03
2023-07-03T12:13:46.572Z,94845.47
2023-07-03T12:16:51.283Z,94849.63
2023-07-03T12:19:59.504Z,94847.38
2023-07-03T12:23:02.744Z,94840.91
2023-07-03T12:26:08.365Z,94829.19
2023-07-03T12:29:11.437Z,94830.84
2023-07-03T12:32:26.370Z,94830.84
2023-07-03T12:35:33.084Z,94830.84
2023-07-03T12:38:37.156Z,94828.19
2023-07-03T12:41:40.413Z,94834.31
2023-07-03T12:44:43.591Z,94832.41
2023-07-03T12:48:01.582Z,94822.47
2023-07-03T12:51:04.779Z,94827.84
2023-07-03T12:54:09.334Z,94819.25
2023-07-03T12:57:12.944Z,94827.28
2023-07-03T13:00:22.398Z,94827.84
2023-07-03T13:03:27.060Z,94840.47
2023-07-03T13:06:31.816Z,94838.56
2023-07-03T13:09:35.045Z,94833.97
2023-07-03T13:12:38.216Z,94839.00
2023-07-03T13:15:43.736Z,94830.97
2023-07-03T13:19:01.546Z,94825.59
2023-07-03T13:22:08.926Z,94832.53
2023-07-03T13:25:14.421Z,94832.88
2023-07-03T13:28:25.404Z,94827.94
2023-07-03T13:31:46.620Z,94829.41
2023-07-03T13:35:01.681Z,94830.06
2023-07-03T13:38:22.081Z,94833.97
2023-07-03T13:41:25.426Z,94842.81
2023-07-03T13:44:28.806Z,94833.19
2023-07-03T13:47:31.923Z,94843.47
2023-07-03T13:50:37.235Z,94836.09
2023-07-03T13:53:40.267Z,94840.00
2023-07-03T13:56:45.447Z,94837.22
2023-07-03T13:59:48.473Z,94839.22
2023-07-03T14:02:52.170Z,94845.38
2023-07-03T14:05:56.756Z,94838.13
2023-07-03T14:08:59.818Z,94840.34
2023-07-03T14:12:03.400Z,94841.13
2023-07-03T14:15:15.430Z,94829.63
2023-07-03T14:18:18.859Z,94834.53
2023-07-03T14:21:25.374Z,94837.78
2023-07-03T14:24:28.859Z,94833.19
2023-07-03T14:27:36.104Z,94821.94
2023-07-03T14:30:39.309Z,94833.44
2023-07-03T14:33:42.517Z,94832.75
2023-07-03T14:36:47.038Z,94835.00
2023-07-03T14:39:50.165Z,94829.97
2023-07-03T14:42:53.539Z,94828.72
2023-07-03T14:45:56.741Z,94828.72
2023-07-03T14:48:59.872Z,94827.81
2023-07-03T14:52:04.432Z,94826.38
2023-07-03T14:55:08.442Z,94830.94
2023-07-03T14:58:12.086Z,94821.44
2023-07-03T15:01:15.322Z,94824.47
2023-07-03T15:04:18.787Z,94826.69
2023-07-03T15:07:23.377Z,94820.56
2023-07-03T15:10:27.468Z,94821.34
2023-07-03T15:13:30.704Z,94824.47
2023-07-03T15:16:35.780Z,94822.47
2023-07-03T15:19:39.553Z,94832.06
2023-07-03T15:22:44.011Z,94818.09
2023-07-03T15:25:47.036Z,94829.03
2023-07-03T15:28:50.261Z,94825.91
2023-07-03T15:31:54.641Z,94830.94
2023-07-03T15:34:57.730Z,94830.94
2023-07-03T15:38:02.188Z,94840.88
2023-07-03T15:41:05.288Z,94830.94
2023-07-03T15:44:08.430Z,94837.09
2023-07-03T15:47:12.431Z,94833.75
2023-07-03T15:50:15.886Z,94839.22
2023-07-03T15:53:20.620Z,94829.19
2023-07-03T15:56:23.743Z,94832.94
2023-07-03T15:59:27.201Z,94831.53
2023-07-03T16:02:30.925Z,94835.31
2023-07-03T16:05:34.008Z,94841.47
2023-07-03T16:08:40.845Z,94840.69
2023-07-03T16:11:43.990Z,94838.19
2023-07-03T16:14:49.098Z,94848.72
2023-07-03T16:17:52.401Z,94850.16
2023-07-03T16:20:58.036Z,94857.06
2023-07-03T16:24:04.210Z,94854.41
2023-07-03T16:27:07.624Z,94847.81
2023-07-03T16:30:12.002Z,94852.38
2023-07-03T16:33:15.302Z,94843.56
2023-07-03T16:36:21.577Z,94853.06
2023-07-03T16:39:26.246Z,94859.97
2023-07-03T16:42:29.451Z,94862.66
2023-07-03T16:45:32.638Z,94868.03
2023-07-03T16:48:36.030Z,94869.13
2023-07-03T16:51:39.085Z,94875.63
2023-07-03T16:54:43.727Z,94875.63
2023-07-03T16:57:46.788Z,94874.16
2023-07-03T17:00:49.854Z,94878.53
2023-07-03T17:03:56.438Z,94875.84
2023-07-03T17:06:59.861Z,94879.00
2023-07-03T17:10:04.498Z,94870.69
2023-07-03T17:13:08.358Z,94885.59
2023-07-03T17:16:11.943Z,94884.25
2023-07-03T17:19:15.211Z,94890.81
2023-07-03T17:22:19.645Z,94894.63
2023-07-03T17:25:24.170Z,94897.53
2023-07-03T17:28:27.299Z,94896.97
2023-07-03T17:31:30.478Z,94891.13
2023-07-03T17:34:33.556Z,94900.53
2023-07-03T17:37:36.641Z,94903.13
2023-07-03T17:40:41.812Z,94898.44
2023-07-03T17:43:44.927Z,94901.44
2023-07-03T17:46:48.161Z,94905.94
2023-07-03T17:49:51.300Z,94912.53
2023-07-03T17:52:54.442Z,94913.19
2023-07-03T17:55:58.963Z,94923.59
2023-07-03T17:59:02.112Z,94912.97
2023-07-03T18:02:06.988Z,94922.13
2023-07-03T18:05:10.412Z,94914.75
2023-07-03T18:08:13.884Z,94917.56
2023-07-03T18:11:19.369Z,94919.13
2023-07-03T18:14:22.678Z,94914.97
2023-07-03T18:17:26.222Z,94930.63
2023-07-03T18:20:29.295Z,94933.75
2023-07-03T18:23:32.651Z,94934.88
2023-07-03T18:26:37.050Z,94939.13
2023-07-03T18:29:40.710Z,94944.16
2023-07-03T18:32:44.173Z,94940.69
2023-07-03T18:35:47.282Z,94948.72
2023-07-03T18:38:50.715Z,94948.09
2023-07-03T18:41:55.200Z,94956.44
2023-07-03T18:44:58.282Z,94960.69
2023-07-03T18:48:01.431Z,94954.09
2023-07-03T18:51:04.821Z,94957.88
2023-07-03T18:54:07.973Z,94967.38
2023-07-03T18:57:12.791Z,94972.41
2023-07-03T19:00:17.033Z,94976.53
2023-07-03T19:03:21.385Z,94975.44
2023-07-03T19:06:24.660Z,94982.34
2023-07-03T19:09:27.767Z,94984.25
2023-07-03T19:12:32.335Z,94980.00
2023-07-03T19:15:36.563Z,94984.94
2023-07-03T19:18:40.643Z,94993.16
2023-07-03T19:21:44.469Z,95000.31
2023-07-03T19:24:49.046Z,95002.88
2023-07-03T19:27:53.595Z,95003.19
2023-07-03T19:30:58.765Z,95007.31
2023-07-03T19:34:03.466Z,95003.34
2023-07-03T19:37:06.849Z,95010.84
2023-07-03T19:40:11.137Z,95014.00
2023-07-03T19:43:15.810Z,95021.34
2023-07-03T19:46:18.892Z,95020.22
2023-07-03T19:49:23.419Z,95019.56
2023-07-03T19:52:26.620Z,95013.16
2023-07-03T19:55:29.757Z,95034.84
2023-07-03T19:58:34.248Z,95033.28
2023-07-03T20:01:38.817Z,95028.78
2023-07-03T20:04:42.153Z,95034.63
2023-07-03T20:07:45.214Z,95043.44
2023-07-03T20:10:48.867Z,95037.47
2023-07-03T20:13:54.602Z,95041.72
2023-07-03T20:16:57.735Z,95040.94
2023-07-03T20:20:00.896Z,95045.97
2023-07-03T20:23:03.970Z,95048.19
2023-07-03T20:26:07.048Z,95052.75
2023-07-03T20:29:12.076Z,95047.53
2023-07-03T20:32:15.124Z,95044.72
2023-07-03T20:35:18.233Z,95048.63
2023-07-03T20:38:21.238Z,95050.22
2023-07-03T20:41:24.473Z,95056.22
2023-07-03T20:44:29.043Z,95057.88
2023-07-03T20:47:32.922Z,95060.75
2023-07-03T20:50:36.003Z,95061.53
2023-07-03T20:53:49.007Z,95059.31
2023-07-03T20:56:52.223Z,95049.06
2023-07-03T20:59:56.684Z,95051.28
2023-07-03T21:02:59.867Z,95053.75
2023-07-03T21:06:03.241Z,95052.19
2023-07-03T21:09:07.117Z,95040.72
2023-07-03T21:12:10.378Z,95049.84
2023-07-03T21:15:14.916Z,95040.13
2023-07-03T21:18:18.070Z,95043.41
2023-07-03T21:21:23.419Z,95048.28
2023-07-03T21:24:26.511Z,95044.50
2023-07-03T21:27:29.873Z,95043.13
2023-07-03T21:30:34.298Z,95041.81
2023-07-03T21:33:37.315Z,95049.19
2023-07-03T21:36:40.764Z,95046.19
2023-07-03T21:39:43.806Z,95049.81
2023-07-03T21:42:46.844Z,95047.13
2023-07-03T21:46:02.052Z,95044.13
2023-07-03T21:49:05.256Z,95042.56
2023-07-03T21:52:08.475Z,95040.19
2023-07-03T21:55:11.768Z,95037.19
2023-07-03T21:58:14.915Z,95035.91
2023-07-03T22:01:23.298Z,95036.59
2023-07-03T22:04:28.090Z,95046.84
2023-07-03T22:07:31.185Z,95044.63
2023-07-03T22:10:34.259Z,95045.59
2023-07-03T22:13:37.357Z,95047.63
2023-07-03T22:16:42.047Z,95042.78
2023-07-03T22:19:45.164Z,95044.81
2023-07-03T22:22:49.202Z,95045.59
2023-07-03T22:25:56.908Z,95045.94
2023-07-03T22:29:00.161Z,95046.84
2023-07-03T22:32:05.034Z,95047.28
2023-07-03T22:35:08.791Z,95052.19
2023-07-03T22:38:11.893Z,95047.50
2023-07-03T22:41:16.093Z,95039.00
2023-07-03T22:44:19.104Z,95045.00
2023-07-03T22:47:23.801Z,95037.75
2023-07-03T22:50:28.325Z,95046.72
2023-07-03T22:53:31.397Z,95050.38
2023-07-03T22:56:34.433Z,95047.34
2023-07-03T22:59:37.670Z,95039.97
2023-07-03T23:02:42.579Z,95039.66
2023-07-03T23:05:47.145Z,95011.22
2023-07-03T23:08:50.625Z,95039.03
2023-07-03T23:11:54.429Z,95037.81
2023-07-03T23:14:57.834Z,95038.25
2023-07-03T23:18:02.416Z,95035.97
2023-07-03T23:21:10.197Z,95043.34
2023-07-03T23:24:13.419Z,95025.72
2023-07-03T23:27:20.588Z,95033.44
2023-07-03T23:30:24.127Z,95031.53
2023-07-03T23:33:30.426Z,95036.88
2023-07-03T23:36:34.773Z,95041.47
2023-07-03T23:39:38.588Z,95039.69
2023-07-03T23:42:41.791Z,95046.94
2023-07-03T23:45:44.868Z,95049.81
2023-07-03T23:48:49.997Z,95051.38
2023-07-03T23:51:53.386Z,95056.28
2023-07-03T23:54:58.889Z,95055.16
2023-07-03T23:58:01.928Z,95064.19
